Terminal Aerodrome Forecast
Issued by NWS

Current Version | Previous Version | Text Only | Print | Product List | Glossary Off
Versions: 1 2 3 4 5 6 7 8 9 10 11 12 13 14 15 16 17 18 19 20 21 22 23 24 25 26 27 28 29 30 31

000
FTUS41 KRNK 132340
TAFLWB
TAF
KLWB 132340Z 1400/1424 VRB03KT P6SM -RA OVC080
     FM140300 03003KT 6SM -RADZ OVC025
     FM140800 04003KT 5SM -FZRA OVC012
     FM141600 00000KT 6SM -RA BR OVC020=

USA.gov is the U.S. government's official web portal to all federal, state and local government web resources and services.